Bowerston, Ohio
Current Conditions -  °F | °C
As of 8:53 PM on Thursday 20 Nov 2014 (Local Time) from KPHD Reporting Station
Overcast Overcast  
Wind Chill: 19°   Ceiling: 6000
Heat Index: 26°   Visibility: 10mi
Dew Point: 14°   Wind: 6mph
Humidity: 60%   Direction: 250°WSW
Pressure: 30.14"   Gusts: 20mph
Location:  40.43°N, 81.19°W
Report Text: KPHD 210153Z AUTO 25005G17KT 10SM OVC060 M03/M10 A3014 RMK AO2 SNB15E25 SLP218 P0000 T10331100
Loading
Personal Weather Stations






























Interactive Weather Map New forecast layout! Learn more

10-Day Weather Forecast

Advertisements
Track Severe Weather on mobile